createdAt,value
2022-08-03T00:01:31.421Z,16.40
2022-08-03T00:03:58.158Z,16.40
2022-08-03T00:06:24.885Z,16.40
2022-08-03T00:08:51.739Z,16.30
2022-08-03T00:11:18.483Z,16.40
2022-08-03T00:13:45.131Z,16.30
2022-08-03T00:16:11.851Z,16.20
2022-08-03T00:18:38.657Z,16.30
2022-08-03T00:21:05.789Z,16.20
2022-08-03T00:23:52.193Z,16.10
2022-08-03T00:26:19.831Z,16.10
2022-08-03T00:28:46.534Z,16.10
2022-08-03T00:31:13.720Z,16.20
2022-08-03T00:33:59.024Z,16.10
2022-08-03T00:36:27.203Z,16.10
2022-08-03T00:38:53.881Z,16.10
2022-08-03T00:41:20.584Z,16.10
2022-08-03T00:43:47.742Z,16.00
2022-08-03T00:46:17.685Z,16.00
2022-08-03T00:48:47.412Z,16.00
2022-08-03T00:51:14.101Z,16.00
2022-08-03T00:53:41.016Z,16.00
2022-08-03T00:56:07.769Z,16.00
2022-08-03T00:58:34.487Z,16.00
2022-08-03T01:01:01.330Z,16.00
2022-08-03T01:03:28.199Z,16.00
2022-08-03T01:05:58.151Z,16.00
2022-08-03T01:08:43.045Z,15.90
2022-08-03T01:11:19.200Z,15.90
2022-08-03T01:14:19.092Z,15.90
2022-08-03T01:16:52.657Z,15.90
2022-08-03T01:19:34.322Z,15.90
2022-08-03T01:22:19.588Z,15.80
2022-08-03T01:24:46.196Z,15.80
2022-08-03T01:27:15.879Z,15.80
2022-08-03T01:29:59.970Z,15.80
2022-08-03T01:32:53.660Z,15.80
2022-08-03T01:35:28.555Z,15.70
2022-08-03T01:38:00.106Z,15.70
2022-08-03T01:40:28.489Z,15.70
2022-08-03T01:42:57.502Z,15.70
2022-08-03T01:45:24.611Z,15.60
2022-08-03T01:47:51.467Z,15.60
2022-08-03T01:50:22.468Z,15.60
2022-08-03T01:52:49.441Z,15.60
2022-08-03T01:55:18.363Z,15.50
2022-08-03T01:58:06.177Z,15.50
2022-08-03T02:00:32.643Z,15.50
2022-08-03T02:02:59.406Z,15.50
2022-08-03T02:05:27.024Z,15.40
2022-08-03T02:07:54.140Z,15.50
2022-08-03T02:10:34.383Z,15.50
2022-08-03T02:13:02.393Z,15.50
2022-08-03T02:15:30.522Z,15.40
2022-08-03T02:17:57.983Z,15.40
2022-08-03T02:20:25.099Z,15.30
2022-08-03T02:22:51.838Z,15.40
2022-08-03T02:25:18.511Z,15.30
2022-08-03T02:27:55.050Z,15.30
2022-08-03T02:30:22.069Z,15.30
2022-08-03T02:32:51.597Z,15.40
2022-08-03T02:35:19.699Z,15.30
2022-08-03T02:37:51.878Z,15.30
2022-08-03T02:40:20.201Z,15.30
2022-08-03T02:42:47.162Z,15.20
2022-08-03T02:45:14.928Z,15.30
2022-08-03T02:47:54.541Z,15.30
2022-08-03T02:50:22.681Z,15.20
2022-08-03T02:52:49.813Z,15.20
2022-08-03T02:55:18.226Z,15.20
2022-08-03T02:57:46.459Z,15.20
2022-08-03T03:00:13.936Z,15.20
2022-08-03T03:02:55.231Z,15.20
2022-08-03T03:05:53.266Z,15.10
2022-08-03T03:08:18.959Z,15.20
2022-08-03T03:10:53.247Z,15.10
2022-08-03T03:13:22.740Z,15.10
2022-08-03T03:15:49.736Z,15.10
2022-08-03T03:18:21.876Z,15.10
2022-08-03T03:20:50.438Z,15.10
2022-08-03T03:23:17.589Z,15.10
2022-08-03T03:25:44.497Z,15.10
2022-08-03T03:28:11.520Z,15.10
2022-08-03T03:30:38.531Z,15.10
2022-08-03T03:33:05.266Z,15.10
2022-08-03T03:35:38.906Z,15.10
2022-08-03T03:38:06.714Z,15.20
2022-08-03T03:40:35.058Z,15.40
2022-08-03T03:43:01.955Z,15.50
2022-08-03T03:45:29.246Z,15.60
2022-08-03T03:47:55.897Z,15.60
2022-08-03T03:50:22.776Z,15.70
2022-08-03T03:52:49.440Z,15.70
2022-08-03T03:55:17.015Z,15.70
2022-08-03T03:57:43.856Z,15.70
2022-08-03T04:00:11.797Z,15.70
2022-08-03T04:02:39.208Z,15.80
2022-08-03T04:05:25.152Z,15.80
2022-08-03T04:08:16.333Z,15.90
2022-08-03T04:11:01.021Z,15.90
2022-08-03T04:13:31.901Z,15.90
2022-08-03T04:15:59.387Z,15.90
2022-08-03T04:18:27.669Z,15.90
2022-08-03T04:20:57.101Z,15.90
2022-08-03T04:23:25.792Z,16.40
2022-08-03T04:25:53.383Z,17.50
2022-08-03T04:28:30.618Z,18.80
2022-08-03T04:30:59.519Z,19.90
2022-08-03T04:33:27.814Z,21.00
2022-08-03T04:36:01.741Z,21.60
2022-08-03T04:38:31.697Z,22.30
2022-08-03T04:40:59.281Z,22.90
2022-08-03T04:43:26.818Z,23.90
2022-08-03T04:45:54.377Z,25.00
2022-08-03T04:48:21.301Z,25.60
2022-08-03T04:50:48.113Z,26.00
2022-08-03T04:53:16.320Z,26.30
2022-08-03T04:55:43.052Z,26.80
2022-08-03T04:58:09.700Z,27.50
2022-08-03T05:00:36.402Z,27.90
2022-08-03T05:03:03.040Z,28.30
2022-08-03T05:05:48.814Z,28.20
2022-08-03T05:08:16.372Z,29.30
2022-08-03T05:10:47.648Z,30.10
2022-08-03T05:13:14.651Z,30.60
2022-08-03T05:15:42.992Z,30.60
2022-08-03T05:18:14.001Z,31.00
2022-08-03T05:20:41.295Z,31.10
2022-08-03T05:23:07.985Z,31.70
2022-08-03T05:25:34.682Z,32.30
2022-08-03T05:28:01.458Z,32.80
2022-08-03T05:30:33.372Z,33.00
2022-08-03T05:33:01.638Z,33.50
2022-08-03T05:36:01.124Z,34.20
2022-08-03T05:38:23.912Z,33.90
2022-08-03T05:40:57.263Z,34.00
2022-08-03T05:43:43.167Z,34.10
2022-08-03T05:46:11.781Z,34.80
2022-08-03T05:48:39.668Z,34.80
2022-08-03T05:51:11.435Z,34.70
2022-08-03T05:53:39.417Z,35.40
2022-08-03T05:56:13.771Z,35.80
2022-08-03T05:58:43.549Z,36.10
2022-08-03T06:01:10.466Z,35.90
2022-08-03T06:03:37.168Z,36.30
2022-08-03T06:06:03.938Z,35.70
2022-08-03T06:08:30.762Z,36.60
2022-08-03T06:10:57.453Z,36.30
2022-08-03T06:13:24.088Z,36.00
2022-08-03T06:15:50.761Z,35.90
2022-08-03T06:18:17.433Z,36.00
2022-08-03T06:20:44.116Z,35.60
2022-08-03T06:23:16.262Z,35.40
2022-08-03T06:25:44.841Z,36.60
2022-08-03T06:28:35.257Z,36.90
2022-08-03T06:30:59.244Z,37.10
2022-08-03T06:33:26.557Z,36.20
2022-08-03T06:36:13.213Z,36.10
2022-08-03T06:38:39.972Z,37.60
2022-08-03T06:41:06.677Z,38.20
2022-08-03T06:43:37.448Z,38.00
2022-08-03T06:46:05.453Z,38.10
2022-08-03T06:48:32.306Z,37.40
2022-08-03T06:50:59.245Z,37.50
2022-08-03T06:53:25.999Z,37.60
2022-08-03T06:55:54.973Z,38.10
2022-08-03T06:58:22.394Z,38.40
2022-08-03T07:00:49.318Z,37.90
2022-08-03T07:03:16.390Z,38.60
2022-08-03T07:05:43.757Z,38.80
2022-08-03T07:08:10.595Z,38.30
2022-08-03T07:10:37.410Z,37.60
2022-08-03T07:13:04.513Z,38.40
2022-08-03T07:15:55.271Z,39.10
2022-08-03T07:18:18.146Z,38.30
2022-08-03T07:20:57.366Z,38.20
2022-08-03T07:23:25.406Z,38.40
2022-08-03T07:25:52.139Z,39.50
2022-08-03T07:28:18.953Z,39.20
2022-08-03T07:30:45.656Z,39.70
2022-08-03T07:33:12.571Z,39.90
2022-08-03T07:35:39.685Z,40.40
2022-08-03T07:38:06.532Z,40.70
2022-08-03T07:40:33.209Z,41.70
2022-08-03T07:43:00.448Z,42.00
2022-08-03T07:45:27.174Z,41.70
2022-08-03T07:47:54.387Z,40.60
2022-08-03T07:50:22.317Z,41.80
2022-08-03T07:52:50.375Z,40.70
2022-08-03T07:55:18.277Z,39.60
2022-08-03T07:57:44.962Z,39.80
2022-08-03T08:00:17.148Z,40.80
2022-08-03T08:02:44.387Z,41.40
2022-08-03T08:05:12.563Z,41.40
2022-08-03T08:07:39.922Z,40.90
2022-08-03T08:10:07.753Z,40.80
2022-08-03T08:12:34.440Z,41.00
2022-08-03T08:15:01.320Z,40.40
2022-08-03T08:17:28.150Z,40.10
2022-08-03T08:19:54.892Z,39.80
2022-08-03T08:22:30.271Z,39.50
2022-08-03T08:24:58.356Z,38.50
2022-08-03T08:27:25.046Z,37.60
2022-08-03T08:29:55.304Z,37.60
2022-08-03T08:32:23.327Z,37.60
2022-08-03T08:34:50.052Z,36.80
2022-08-03T08:37:16.740Z,36.20
2022-08-03T08:39:43.397Z,35.60
2022-08-03T08:42:10.229Z,35.30
2022-08-03T08:44:36.983Z,35.70
2022-08-03T08:47:04.430Z,35.50
2022-08-03T08:49:32.720Z,35.70
2022-08-03T08:52:01.659Z,35.80
2022-08-03T08:54:29.732Z,36.00
2022-08-03T08:56:57.258Z,35.80
2022-08-03T08:59:24.970Z,35.60
2022-08-03T09:01:51.713Z,34.90
2022-08-03T09:04:18.547Z,34.70
2022-08-03T09:07:04.382Z,34.90
2022-08-03T09:10:11.351Z,35.00
2022-08-03T09:12:41.203Z,34.50
2022-08-03T09:15:21.526Z,34.60
2022-08-03T09:17:51.153Z,34.90
2022-08-03T09:20:19.146Z,35.30
2022-08-03T09:23:43.009Z,35.50
2022-08-03T09:25:58.109Z,35.90
2022-08-03T09:28:58.848Z,36.10
2022-08-03T09:31:20.039Z,36.40
2022-08-03T09:33:47.634Z,36.40
2022-08-03T09:36:34.499Z,36.40
2022-08-03T09:39:03.257Z,36.10
2022-08-03T09:41:29.886Z,35.60
2022-08-03T09:43:57.282Z,35.90
2022-08-03T09:46:23.951Z,36.20
2022-08-03T09:48:50.635Z,35.70
2022-08-03T09:52:31.254Z,35.40
2022-08-03T09:54:15.054Z,35.60
2022-08-03T09:56:45.948Z,35.30
2022-08-03T09:59:13.456Z,34.70
2022-08-03T10:01:43.269Z,34.60
2022-08-03T10:04:19.625Z,34.60
2022-08-03T10:07:01.028Z,35.40
2022-08-03T10:09:28.002Z,35.20
2022-08-03T10:11:54.874Z,35.00
2022-08-03T10:14:22.585Z,35.10
2022-08-03T10:16:49.409Z,35.00
2022-08-03T10:19:16.597Z,35.10
2022-08-03T10:21:47.883Z,35.10
2022-08-03T10:24:16.967Z,35.30
2022-08-03T10:26:49.799Z,34.70
2022-08-03T10:29:25.085Z,34.20
2022-08-03T10:31:55.926Z,33.60
2022-08-03T10:34:29.018Z,33.70
2022-08-03T10:36:58.701Z,34.30
2022-08-03T10:39:27.786Z,34.60
2022-08-03T10:41:59.946Z,34.60
2022-08-03T10:44:33.762Z,34.90
2022-08-03T10:47:01.039Z,34.70
2022-08-03T10:49:34.830Z,34.80
2022-08-03T10:52:12.826Z,34.70
2022-08-03T10:55:03.513Z,34.40
2022-08-03T10:57:48.861Z,33.90
2022-08-03T11:00:20.996Z,34.10
2022-08-03T11:03:08.747Z,34.10
2022-08-03T11:05:36.954Z,34.10
2022-08-03T11:08:22.510Z,34.60
2022-08-03T11:10:50.028Z,34.60
2022-08-03T11:13:18.008Z,34.60
2022-08-03T11:15:46.604Z,34.50
2022-08-03T11:18:13.783Z,34.40
2022-08-03T11:20:47.691Z,34.70
2022-08-03T11:23:15.042Z,34.60
2022-08-03T11:26:00.498Z,34.50
2022-08-03T11:28:28.494Z,34.10
2022-08-03T11:30:55.291Z,34.40
2022-08-03T11:33:29.146Z,34.20
2022-08-03T11:36:00.283Z,34.10
2022-08-03T11:38:26.972Z,34.00
2022-08-03T11:40:54.508Z,34.20
2022-08-03T11:43:31.304Z,34.40
2022-08-03T11:46:04.338Z,34.50
2022-08-03T11:48:33.789Z,34.50
2022-08-03T11:51:00.995Z,34.40
2022-08-03T11:53:28.713Z,34.10
2022-08-03T11:55:58.317Z,34.10
2022-08-03T11:59:13.094Z,34.20
2022-08-03T12:01:12.507Z,33.90
2022-08-03T12:03:39.263Z,33.90
2022-08-03T12:06:09.408Z,34.00
2022-08-03T12:08:36.220Z,34.30
2022-08-03T12:11:05.833Z,34.40
2022-08-03T12:14:44.170Z,34.40
2022-08-03T12:16:28.834Z,34.10
2022-08-03T12:19:02.601Z,34.30
2022-08-03T12:21:29.613Z,34.60
2022-08-03T12:23:57.336Z,35.00
2022-08-03T12:26:24.043Z,35.20
2022-08-03T12:28:50.754Z,34.90
2022-08-03T12:31:17.554Z,34.60
2022-08-03T12:33:58.974Z,34.40
2022-08-03T12:36:26.807Z,34.20
2022-08-03T12:38:57.895Z,34.40
2022-08-03T12:41:29.303Z,34.30
2022-08-03T12:43:56.008Z,34.10
2022-08-03T12:46:22.788Z,34.40
2022-08-03T12:49:07.608Z,34.70
2022-08-03T12:51:35.672Z,34.70
2022-08-03T12:54:03.152Z,34.70
2022-08-03T12:56:29.907Z,35.00
2022-08-03T12:58:56.866Z,35.20
2022-08-03T13:01:24.530Z,35.10
2022-08-03T13:03:53.711Z,35.10
2022-08-03T13:06:22.245Z,35.00
2022-08-03T13:08:49.323Z,34.80
2022-08-03T13:11:23.404Z,34.30
2022-08-03T13:14:10.519Z,34.00
2022-08-03T13:16:43.439Z,34.10
2022-08-03T13:19:15.405Z,34.30
2022-08-03T13:21:53.674Z,34.60
2022-08-03T13:24:30.490Z,34.80
2022-08-03T13:26:58.364Z,34.80
2022-08-03T13:29:25.049Z,34.90
2022-08-03T13:31:51.735Z,34.70
2022-08-03T13:34:22.965Z,34.20
2022-08-03T13:39:58.202Z,34.00
2022-08-03T13:42:25.254Z,34.00
2022-08-03T13:44:51.986Z,33.90
2022-08-03T13:47:19.488Z,33.80
2022-08-03T13:49:59.610Z,34.00
2022-08-03T13:52:27.616Z,34.00
2022-08-03T13:54:54.421Z,34.40
2022-08-03T13:58:02.820Z,34.30
2022-08-03T14:00:08.296Z,33.90
2022-08-03T14:02:35.053Z,33.80
2022-08-03T14:05:01.715Z,33.80
2022-08-03T14:07:28.410Z,33.80
2022-08-03T14:09:55.180Z,34.10
2022-08-03T14:12:21.897Z,34.00
2022-08-03T14:14:48.618Z,34.10
2022-08-03T14:17:16.462Z,34.20
2022-08-03T14:19:52.511Z,34.00
2022-08-03T14:22:21.172Z,33.80
2022-08-03T14:24:49.324Z,33.90
2022-08-03T14:27:16.529Z,33.90
2022-08-03T14:29:43.260Z,33.80
2022-08-03T14:32:13.236Z,34.10
2022-08-03T14:34:40.917Z,34.20
2022-08-03T14:37:08.030Z,34.10
2022-08-03T14:42:21.727Z,34.00
2022-08-03T14:44:48.499Z,34.10
2022-08-03T14:47:15.340Z,34.10
2022-08-03T14:50:31.187Z,34.10
2022-08-03T14:52:29.299Z,33.80
2022-08-03T14:54:55.950Z,33.90
2022-08-03T14:57:22.769Z,33.80
2022-08-03T14:59:56.152Z,33.70
2022-08-03T15:02:24.919Z,33.70
2022-08-03T15:04:52.137Z,33.50
2022-08-03T15:07:19.248Z,33.50
2022-08-03T15:09:46.223Z,33.50
2022-08-03T15:12:13.006Z,33.50
2022-08-03T15:14:39.781Z,33.60
2022-08-03T15:17:07.052Z,33.50
2022-08-03T15:20:00.301Z,33.50
2022-08-03T15:22:25.473Z,33.40
2022-08-03T15:26:01.682Z,33.60
2022-08-03T15:28:04.113Z,33.80
2022-08-03T15:30:33.824Z,33.90
2022-08-03T15:33:00.497Z,33.90
2022-08-03T15:35:28.864Z,33.90
2022-08-03T15:37:55.534Z,33.80
2022-08-03T15:40:22.284Z,33.80
2022-08-03T15:42:48.934Z,33.70
2022-08-03T15:45:20.300Z,33.50
2022-08-03T15:47:47.219Z,33.50
2022-08-03T15:50:13.929Z,33.50
2022-08-03T15:52:40.637Z,33.60
2022-08-03T15:55:07.697Z,33.60
2022-08-03T15:57:34.381Z,33.70
2022-08-03T16:00:21.109Z,33.70
2022-08-03T16:03:00.826Z,33.70
2022-08-03T16:05:27.698Z,33.70
2022-08-03T16:08:03.250Z,33.60
2022-08-03T16:10:31.279Z,33.50
2022-08-03T16:13:00.710Z,33.30
2022-08-03T16:15:27.589Z,33.20
2022-08-03T16:17:54.339Z,33.30
2022-08-03T16:20:29.691Z,33.40
2022-08-03T16:23:00.652Z,33.30
2022-08-03T16:25:30.894Z,33.40
2022-08-03T16:28:12.453Z,33.30
2022-08-03T16:30:40.159Z,33.30
2022-08-03T16:33:06.853Z,33.20
2022-08-03T16:35:33.536Z,33.10
2022-08-03T16:38:00.242Z,33.00
2022-08-03T16:40:27.095Z,33.00
2022-08-03T16:42:53.770Z,33.00
2022-08-03T16:45:20.508Z,32.90
2022-08-03T16:47:47.159Z,33.00
2022-08-03T16:50:28.015Z,32.90
2022-08-03T16:52:55.065Z,32.70
2022-08-03T16:55:43.276Z,32.70
2022-08-03T16:58:08.544Z,32.80
2022-08-03T17:00:41.462Z,32.70
2022-08-03T17:03:18.927Z,32.60
2022-08-03T17:05:49.810Z,32.50
2022-08-03T17:08:18.909Z,32.50
2022-08-03T17:10:53.097Z,32.40
2022-08-03T17:13:22.517Z,32.40
2022-08-03T17:16:00.738Z,32.40
2022-08-03T17:18:32.439Z,32.40
2022-08-03T17:21:00.605Z,32.30
2022-08-03T17:23:50.613Z,32.30
2022-08-03T17:26:21.833Z,32.20
2022-08-03T17:28:57.250Z,32.20
2022-08-03T17:31:31.795Z,32.20
2022-08-03T17:34:00.687Z,32.10
2022-08-03T17:36:47.632Z,32.10
2022-08-03T17:39:15.098Z,32.00
2022-08-03T17:41:49.069Z,31.90
2022-08-03T17:44:31.996Z,31.90
2022-08-03T17:47:04.049Z,31.80
2022-08-03T17:49:33.321Z,31.70
2022-08-03T17:52:17.517Z,31.70
2022-08-03T17:55:50.784Z,31.60
2022-08-03T17:58:02.546Z,31.50
2022-08-03T18:00:51.713Z,31.40
2022-08-03T18:03:20.776Z,31.30
2022-08-03T18:06:10.562Z,31.20
2022-08-03T18:08:37.030Z,31.00
2022-08-03T18:11:16.145Z,30.70
2022-08-03T18:13:53.492Z,30.50
2022-08-03T18:16:28.017Z,30.40
2022-08-03T18:18:57.026Z,30.10
2022-08-03T18:21:28.085Z,29.80
2022-08-03T18:24:16.083Z,29.50
2022-08-03T18:26:42.836Z,29.20
2022-08-03T18:29:15.529Z,28.90
2022-08-03T18:32:02.561Z,28.60
2022-08-03T18:34:33.894Z,28.30
2022-08-03T18:37:08.027Z,28.00
2022-08-03T18:39:38.893Z,27.70
2022-08-03T18:42:19.242Z,27.40
2022-08-03T18:44:53.849Z,27.10
2022-08-03T18:47:25.470Z,26.80
2022-08-03T18:49:52.096Z,26.60
2022-08-03T18:52:26.898Z,26.30
2022-08-03T18:55:02.345Z,26.20
2022-08-03T18:57:51.442Z,26.00
2022-08-03T19:00:24.437Z,25.80
2022-08-03T19:03:09.174Z,25.50
2022-08-03T19:05:56.520Z,25.30
2022-08-03T19:08:43.540Z,25.20
2022-08-03T19:11:15.558Z,25.00
2022-08-03T19:13:50.630Z,24.80
2022-08-03T19:16:43.702Z,24.70
2022-08-03T19:19:14.433Z,24.50
2022-08-03T19:21:41.660Z,24.30
2022-08-03T19:24:10.215Z,24.20
2022-08-03T19:26:39.499Z,24.10
2022-08-03T19:29:07.425Z,23.90
2022-08-03T19:31:59.243Z,23.80
2022-08-03T19:34:27.814Z,23.80
2022-08-03T19:36:55.276Z,23.60
2022-08-03T19:39:24.294Z,23.60
2022-08-03T19:41:52.627Z,23.50
2022-08-03T19:44:23.061Z,23.30
2022-08-03T19:46:54.662Z,23.20
2022-08-03T19:49:26.183Z,23.10
2022-08-03T19:52:14.045Z,23.00
2022-08-03T19:54:53.883Z,22.90
2022-08-03T19:57:23.288Z,22.80
2022-08-03T19:59:50.864Z,22.80
2022-08-03T20:02:26.458Z,22.70
2022-08-03T20:04:59.745Z,22.70
2022-08-03T20:07:28.153Z,22.60
2022-08-03T20:09:56.512Z,22.50
2022-08-03T20:15:12.910Z,22.40
2022-08-03T20:17:56.220Z,22.30
2022-08-03T20:20:33.552Z,22.20
2022-08-03T20:23:00.758Z,22.10
2022-08-03T20:25:37.983Z,22.10
2022-08-03T20:28:17.037Z,22.00
2022-08-03T20:30:44.550Z,21.90
2022-08-03T20:33:18.286Z,21.80
2022-08-03T20:35:48.827Z,21.80
2022-08-03T20:38:17.162Z,21.70
2022-08-03T20:40:46.385Z,21.60
2022-08-03T20:43:13.101Z,21.60
2022-08-03T20:46:00.206Z,21.60
2022-08-03T20:48:27.824Z,21.50
2022-08-03T20:50:56.522Z,21.40
2022-08-03T20:53:57.221Z,21.30
2022-08-03T20:56:10.154Z,21.20
2022-08-03T20:58:36.994Z,21.10
2022-08-03T21:01:08.551Z,21.10
2022-08-03T21:03:40.995Z,21.00
2022-08-03T21:06:27.461Z,20.90
2022-08-03T21:09:00.294Z,20.80
2022-08-03T21:11:41.543Z,20.70
2022-08-03T21:13:12.763Z,22.50
2022-08-03T21:14:12.310Z,20.70
2022-08-03T21:16:39.354Z,20.50
2022-08-03T21:19:06.397Z,20.50
2022-08-03T21:21:33.270Z,20.50
2022-08-03T21:24:00.344Z,20.50
2022-08-03T21:26:27.476Z,20.40
2022-08-03T21:28:55.762Z,20.30
2022-08-03T21:31:25.617Z,20.20
2022-08-03T21:33:56.528Z,20.20
2022-08-03T21:36:23.761Z,20.10
2022-08-03T21:38:56.647Z,20.00
2022-08-03T21:41:24.874Z,20.00
2022-08-03T21:43:51.569Z,20.00
2022-08-03T21:46:18.969Z,20.00
2022-08-03T21:48:47.371Z,19.90
2022-08-03T21:51:16.173Z,19.90
2022-08-03T21:54:03.670Z,19.90
2022-08-03T21:56:34.064Z,19.80
2022-08-03T21:59:05.024Z,19.70
2022-08-03T22:01:35.370Z,19.60
2022-08-03T22:04:03.559Z,19.50
2022-08-03T22:06:30.237Z,19.50
2022-08-03T22:08:56.931Z,19.50
2022-08-03T22:11:23.567Z,19.50
2022-08-03T22:13:50.596Z,19.40
2022-08-03T22:16:17.255Z,19.40
2022-08-03T22:18:44.856Z,19.40
2022-08-03T22:21:12.867Z,19.30
2022-08-03T22:23:50.084Z,19.30
2022-08-03T22:26:34.778Z,19.30
2022-08-03T22:29:06.094Z,19.20
2022-08-03T22:31:58.115Z,19.10
2022-08-03T22:34:23.666Z,19.10
2022-08-03T22:36:54.436Z,19.10
2022-08-03T22:39:27.343Z,19.00
2022-08-03T22:41:54.316Z,18.90
2022-08-03T22:44:21.882Z,18.90
2022-08-03T22:46:48.746Z,18.80
2022-08-03T22:49:16.352Z,18.80
2022-08-03T22:51:43.086Z,18.70
2022-08-03T22:54:10.954Z,18.70
2022-08-03T22:56:41.330Z,18.70
2022-08-03T22:59:40.012Z,18.60
2022-08-03T23:01:58.732Z,18.60
2022-08-03T23:04:26.187Z,18.60
2022-08-03T23:06:55.702Z,18.50
2022-08-03T23:09:23.078Z,18.50
2022-08-03T23:11:50.209Z,18.50
2022-08-03T23:14:18.935Z,18.40
2022-08-03T23:16:46.509Z,18.40
2022-08-03T23:19:17.170Z,18.30
2022-08-03T23:22:02.415Z,18.30
2022-08-03T23:24:30.871Z,18.20
2022-08-03T23:26:58.340Z,18.20
2022-08-03T23:29:26.185Z,18.10
2022-08-03T23:31:53.597Z,18.10
2022-08-03T23:34:39.730Z,18.00
2022-08-03T23:37:06.501Z,18.00
2022-08-03T23:39:35.055Z,17.90
2022-08-03T23:42:02.989Z,18.00
2022-08-03T23:44:30.201Z,18.00
2022-08-03T23:46:57.481Z,17.90
2022-08-03T23:49:24.150Z,17.90
2022-08-03T23:51:56.693Z,17.90
2022-08-03T23:54:32.280Z,18.00
2022-08-03T23:57:04.908Z,18.00
2022-08-03T23:59:44.238Z,18.00
